Time;durP1;ratioP1;P1;durP2;ratioP2;P2;SDS_P1;SDS_P2;PMS_P1;PMS_P2;Temp;Humidity;BMP_temperature;BMP_pressure;BME280_temperature;BME280_humidity;BME280_pressure;Samples;Min_cycle;Max_cycle;Signal;HPM_P1;HPM_P2
2023/03/07 00:01:38;;;;;;;7.07;6.03;;;;;;;;;;5087503;28;20186;-54
2023/03/07 00:04:04;;;;;;;10.70;7.37;;;;;;;;;;5085441;28;20228;-54
2023/03/07 00:06:31;;;;;;;9.07;6.70;;;;;;;;;;5080691;28;20191;-54
2023/03/07 00:09:01;;;;;;;7.90;6.37;;;;;;;;;;5091815;28;20204;-54
2023/03/07 00:11:27;;;;;;;9.53;6.63;;;;;;;;;;5085525;28;20223;-54
2023/03/07 00:13:54;;;;;;;8.23;6.27;;;;;;;;;;5080593;28;20229;-54
2023/03/07 00:16:21;;;;;;;8.80;6.83;;;;;;;;;;5089203;28;20183;-54
2023/03/07 00:18:47;;;;;;;8.70;6.63;;;;;;;;;;5093364;28;20245;-54
2023/03/07 00:21:14;;;;;;;7.07;5.83;;;;;;;;;;5088722;28;20182;-54
2023/03/07 00:23:41;;;;;;;8.70;6.37;;;;;;;;;;5083298;28;20192;-54
2023/03/07 00:26:12;;;;;;;8.53;6.33;;;;;;;;;;5082563;28;20180;-54
2023/03/07 00:28:38;;;;;;;7.87;5.80;;;;;;;;;;5091176;28;20706;-55
2023/03/07 00:31:06;;;;;;;7.97;6.30;;;;;;;;;;5084528;28;20203;-54
2023/03/07 00:33:32;;;;;;;6.67;5.50;;;;;;;;;;5076908;28;20588;-54
2023/03/07 00:36:03;;;;;;;7.43;6.13;;;;;;;;;;5087685;28;20179;-54
2023/03/07 00:38:30;;;;;;;7.70;5.73;;;;;;;;;;5084802;28;20278;-54
2023/03/07 00:41:04;;;;;;;5.27;4.53;;;;;;;;;;5087189;28;20229;-54
2023/03/07 00:43:30;;;;;;;5.40;4.73;;;;;;;;;;5087380;28;20201;-54
2023/03/07 00:45:56;;;;;;;5.87;4.83;;;;;;;;;;5086449;28;20588;-54
2023/03/07 00:48:23;;;;;;;6.80;4.73;;;;;;;;;;5083447;28;20180;-54
2023/03/07 00:50:49;;;;;;;4.87;4.37;;;;;;;;;;5086634;28;20710;-54
2023/03/07 00:53:15;;;;;;;5.93;4.93;;;;;;;;;;5088476;28;20479;-54
2023/03/07 00:55:41;;;;;;;6.33;3.93;;;;;;;;;;5078232;28;20176;-54
2023/03/07 00:58:08;;;;;;;6.53;5.00;;;;;;;;;;5086408;28;20677;-55
2023/03/07 01:00:34;;;;;;;4.93;4.43;;;;;;;;;;5086880;28;20175;-54
2023/03/07 01:03:02;;;;;;;4.63;4.13;;;;;;;;;;5083892;28;20227;-54
2023/03/07 01:05:28;;;;;;;5.37;4.70;;;;;;;;;;5096358;28;20195;-58
2023/03/07 01:07:54;;;;;;;6.47;4.20;;;;;;;;;;5080802;28;20180;-54
2023/03/07 01:10:20;;;;;;;4.83;4.33;;;;;;;;;;5091910;28;20206;-54
2023/03/07 01:12:46;;;;;;;4.30;3.87;;;;;;;;;;5090846;28;20615;-54
2023/03/07 01:15:12;;;;;;;5.50;4.93;;;;;;;;;;5090539;28;20168;-54
2023/03/07 01:17:38;;;;;;;5.23;4.50;;;;;;;;;;5087408;28;20263;-54
2023/03/07 01:20:07;;;;;;;5.50;4.50;;;;;;;;;;5089237;28;20183;-54
2023/03/07 01:22:33;;;;;;;5.30;4.27;;;;;;;;;;5082268;28;20206;-54
2023/03/07 01:24:59;;;;;;;4.73;4.33;;;;;;;;;;5089306;28;20244;-54
2023/03/07 01:27:26;;;;;;;4.33;3.93;;;;;;;;;;5087327;28;20187;-54
2023/03/07 01:29:52;;;;;;;4.60;3.93;;;;;;;;;;5086320;28;20200;-54
2023/03/07 01:32:18;;;;;;;6.37;4.23;;;;;;;;;;5080765;28;20214;-54
2023/03/07 01:34:44;;;;;;;4.70;4.07;;;;;;;;;;5085047;28;20217;-54
2023/03/07 01:37:10;;;;;;;5.17;4.60;;;;;;;;;;5085183;28;20662;-54
2023/03/07 01:39:36;;;;;;;5.43;4.30;;;;;;;;;;5085163;28;20337;-54
2023/03/07 01:42:02;;;;;;;5.60;4.40;;;;;;;;;;5085370;28;20267;-54
2023/03/07 01:44:28;;;;;;;5.17;4.03;;;;;;;;;;5082555;28;20553;-54
2023/03/07 01:46:55;;;;;;;5.27;4.50;;;;;;;;;;5088161;28;20171;-54
2023/03/07 01:49:24;;;;;;;9.53;5.00;;;;;;;;;;5074473;28;20209;-54
2023/03/07 01:52:10;;;;;;;5.50;4.73;;;;;;;;;;5074268;28;20182;-54
2023/03/07 01:54:39;;;;;;;5.37;4.67;;;;;;;;;;5087062;28;20182;-54
2023/03/07 01:57:05;;;;;;;5.97;5.10;;;;;;;;;;5088963;28;20225;-54
2023/03/07 01:59:32;;;;;;;8.57;4.33;;;;;;;;;;5083519;28;20585;-54
2023/03/07 02:02:00;;;;;;;4.50;3.83;;;;;;;;;;5085506;28;20190;-54
2023/03/07 02:04:30;;;;;;;4.93;4.40;;;;;;;;;;5076044;28;20220;-54
2023/03/07 02:06:56;;;;;;;5.10;3.67;;;;;;;;;;5080837;28;20317;-54
2023/03/07 03:29:17;;;;;;;3.13;2.83;;;;;;;;;;3603476;28;22253;-54
2023/03/07 03:31:44;;;;;;;2.80;2.53;;;;;;;;;;5065902;28;21396;-55
2023/03/07 03:34:10;;;;;;;2.90;2.60;;;;;;;;;;5070071;28;20244;-55
2023/03/07 03:36:36;;;;;;;3.20;2.77;;;;;;;;;;5077035;28;20179;-55
2023/03/07 03:39:03;;;;;;;2.90;2.63;;;;;;;;;;5063389;28;20180;-54
2023/03/07 03:41:29;;;;;;;3.07;2.60;;;;;;;;;;5064639;28;20204;-54
2023/03/07 03:43:56;;;;;;;3.13;2.83;;;;;;;;;;5071706;28;20259;-54
2023/03/07 03:46:22;;;;;;;3.40;2.60;;;;;;;;;;5066274;28;20197;-54
2023/03/07 03:48:54;;;;;;;2.97;2.60;;;;;;;;;;5068187;28;20177;-54
2023/03/07 03:51:21;;;;;;;2.90;2.67;;;;;;;;;;5066611;28;20171;-55
2023/03/07 03:53:47;;;;;;;3.13;2.83;;;;;;;;;;5068728;28;20172;-54
2023/03/07 03:56:15;;;;;;;4.47;3.00;;;;;;;;;;5067113;28;20176;-54
2023/03/07 03:58:41;;;;;;;2.70;2.50;;;;;;;;;;5064909;28;20267;-54
2023/03/07 04:01:09;;;;;;;3.70;3.40;;;;;;;;;;5057314;28;20628;-54
2023/03/07 04:03:36;;;;;;;3.40;2.70;;;;;;;;;;5069927;28;20187;-54
2023/03/07 04:06:03;;;;;;;2.60;2.40;;;;;;;;;;5068419;28;20195;-54
2023/03/07 04:08:29;;;;;;;3.60;2.97;;;;;;;;;;5061997;28;20178;-54
2023/03/07 04:10:55;;;;;;;3.80;2.57;;;;;;;;;;5057191;28;20228;-54
2023/03/07 04:13:22;;;;;;;2.40;2.20;;;;;;;;;;5065873;28;20176;-54
2023/03/07 04:15:48;;;;;;;2.93;2.73;;;;;;;;;;5067577;28;20632;-54
2023/03/07 04:18:14;;;;;;;4.13;3.83;;;;;;;;;;5064292;28;20207;-54
2023/03/07 04:20:44;;;;;;;3.17;2.87;;;;;;;;;;5068044;28;20191;-54
2023/03/07 04:23:11;;;;;;;2.57;2.37;;;;;;;;;;5062347;28;20266;-54
2023/03/07 04:25:37;;;;;;;2.60;2.40;;;;;;;;;;5067937;28;20176;-54
2023/03/07 04:28:03;;;;;;;2.90;2.70;;;;;;;;;;5068095;28;20176;-55
2023/03/07 04:30:29;;;;;;;3.30;2.93;;;;;;;;;;5077460;28;20276;-54
2023/03/07 04:32:55;;;;;;;2.67;2.47;;;;;;;;;;5090841;28;20767;-55
2023/03/07 04:35:21;;;;;;;3.27;2.97;;;;;;;;;;5084696;28;20275;-54
2023/03/07 04:37:49;;;;;;;3.03;2.73;;;;;;;;;;5085592;28;20200;-54
2023/03/07 04:40:15;;;;;;;4.80;4.40;;;;;;;;;;5083447;28;20188;-54
2023/03/07 04:42:41;;;;;;;3.20;2.80;;;;;;;;;;5078223;28;20202;-55
2023/03/07 04:45:08;;;;;;;4.00;3.17;;;;;;;;;;5089163;28;20191;-54
2023/03/07 04:47:34;;;;;;;3.20;2.90;;;;;;;;;;5084575;28;20262;-55
2023/03/07 04:50:00;;;;;;;3.93;3.50;;;;;;;;;;5085782;28;20336;-55
2023/03/07 04:52:26;;;;;;;3.47;3.17;;;;;;;;;;5074760;28;20187;-55
2023/03/07 04:54:52;;;;;;;3.73;3.30;;;;;;;;;;5081594;28;20177;-55
2023/03/07 04:57:18;;;;;;;3.17;2.90;;;;;;;;;;5086611;28;20180;-55
2023/03/07 04:59:44;;;;;;;4.10;3.33;;;;;;;;;;5085492;28;20238;-54
2023/03/07 05:02:12;;;;;;;5.13;4.33;;;;;;;;;;5088302;28;20175;-55
2023/03/07 05:04:38;;;;;;;4.20;3.80;;;;;;;;;;5080136;28;20233;-55
2023/03/07 05:07:04;;;;;;;4.07;3.70;;;;;;;;;;5085442;28;20186;-55
2023/03/07 05:09:30;;;;;;;5.50;4.30;;;;;;;;;;5082323;28;20200;-55
2023/03/07 05:11:56;;;;;;;5.00;3.90;;;;;;;;;;5087276;28;20199;-55
2023/03/07 05:14:22;;;;;;;4.20;3.80;;;;;;;;;;5089371;28;20619;-54
2023/03/07 05:16:49;;;;;;;4.93;3.97;;;;;;;;;;5087011;28;20233;-55
2023/03/07 05:19:15;;;;;;;4.77;4.37;;;;;;;;;;5087515;28;20602;-54
2023/03/07 05:21:42;;;;;;;5.53;3.93;;;;;;;;;;5076825;28;20218;-55
2023/03/07 05:24:09;;;;;;;5.43;4.10;;;;;;;;;;5079933;28;20209;-55
2023/03/07 05:26:35;;;;;;;4.93;4.27;;;;;;;;;;5074585;28;20705;-54
2023/03/07 05:29:01;;;;;;;4.87;3.73;;;;;;;;;;5085307;28;20180;-55
2023/03/07 05:31:27;;;;;;;4.43;3.53;;;;;;;;;;5076812;28;20179;-54
2023/03/07 05:33:53;;;;;;;3.63;3.30;;;;;;;;;;5086617;28;20269;-54
2023/03/07 05:36:19;;;;;;;4.77;4.33;;;;;;;;;;5084426;28;20187;-55
2023/03/07 05:38:45;;;;;;;4.60;3.70;;;;;;;;;;5087522;28;20180;-54
2023/03/07 05:41:11;;;;;;;5.13;4.13;;;;;;;;;;5088612;28;20176;-54
2023/03/07 05:43:37;;;;;;;6.10;4.63;;;;;;;;;;5082961;28;20173;-55
2023/03/07 05:46:03;;;;;;;4.83;4.33;;;;;;;;;;5080367;28;20266;-56
2023/03/07 05:48:30;;;;;;;4.37;3.93;;;;;;;;;;5086061;28;20199;-54
2023/03/07 05:50:59;;;;;;;6.23;4.43;;;;;;;;;;5086262;28;20203;-54
2023/03/07 05:53:26;;;;;;;6.20;4.97;;;;;;;;;;5074123;28;20181;-54
2023/03/07 05:55:52;;;;;;;4.80;4.30;;;;;;;;;;5082629;28;20186;-54
2023/03/07 05:58:18;;;;;;;4.07;3.67;;;;;;;;;;5083635;28;20171;-54
2023/03/07 06:00:44;;;;;;;4.40;3.90;;;;;;;;;;5082964;28;20196;-54
2023/03/07 06:03:10;;;;;;;5.77;5.23;;;;;;;;;;5087572;28;20191;-54
2023/03/07 06:05:36;;;;;;;4.50;4.10;;;;;;;;;;5082323;28;20191;-54
2023/03/07 06:08:02;;;;;;;4.63;4.20;;;;;;;;;;5093297;28;20228;-54
2023/03/07 06:10:28;;;;;;;5.53;4.90;;;;;;;;;;5087380;28;20207;-54
2023/03/07 06:12:54;;;;;;;4.30;3.90;;;;;;;;;;5087446;28;20179;-54
2023/03/07 06:15:21;;;;;;;4.77;4.27;;;;;;;;;;5088920;28;20172;-54
2023/03/07 06:17:48;;;;;;;4.53;4.00;;;;;;;;;;5087607;28;20710;-54
2023/03/07 06:20:15;;;;;;;6.13;5.07;;;;;;;;;;5086024;28;20183;-54
2023/03/07 06:22:41;;;;;;;4.87;4.00;;;;;;;;;;5083240;28;20619;-54
2023/03/07 06:25:08;;;;;;;5.73;4.60;;;;;;;;;;5088003;28;20199;-54
2023/03/07 06:27:34;;;;;;;6.93;4.93;;;;;;;;;;5094651;28;20458;-55
2023/03/07 06:30:00;;;;;;;6.23;4.67;;;;;;;;;;5077665;28;20227;-55
2023/03/07 06:32:26;;;;;;;5.07;4.23;;;;;;;;;;5080020;28;20669;-54
2023/03/07 06:34:53;;;;;;;6.03;4.37;;;;;;;;;;5083609;28;20175;-55
2023/03/07 06:37:19;;;;;;;6.17;4.43;;;;;;;;;;5081432;28;20189;-55
2023/03/07 06:39:45;;;;;;;4.93;4.20;;;;;;;;;;5087839;28;20180;-55
2023/03/07 06:42:11;;;;;;;5.13;4.63;;;;;;;;;;5091281;28;20194;-54
2023/03/07 06:44:37;;;;;;;5.43;4.63;;;;;;;;;;5092828;28;20199;-54
2023/03/07 06:47:04;;;;;;;5.53;4.63;;;;;;;;;;5081876;28;20168;-54
2023/03/07 06:49:30;;;;;;;6.57;4.97;;;;;;;;;;5089043;28;20203;-54
2023/03/07 06:51:56;;;;;;;7.63;5.20;;;;;;;;;;5091888;28;20168;-54
2023/03/07 06:54:22;;;;;;;6.07;5.27;;;;;;;;;;5092662;28;20555;-55
2023/03/07 06:56:48;;;;;;;5.33;4.80;;;;;;;;;;5089463;28;20184;-55
2023/03/07 06:59:14;;;;;;;5.37;4.80;;;;;;;;;;5089005;28;20251;-55
2023/03/07 07:01:40;;;;;;;5.60;5.00;;;;;;;;;;5089640;28;20176;-54
2023/03/07 07:04:06;;;;;;;6.17;5.40;;;;;;;;;;5071701;28;20206;-55
2023/03/07 07:06:32;;;;;;;5.33;4.67;;;;;;;;;;5073640;28;20167;-54
2023/03/07 07:08:59;;;;;;;5.80;5.07;;;;;;;;;;5081561;28;20267;-55
2023/03/07 07:11:25;;;;;;;6.70;5.00;;;;;;;;;;5092571;28;20211;-54
2023/03/07 07:13:51;;;;;;;5.80;5.30;;;;;;;;;;5078207;28;20184;-54
2023/03/07 07:16:17;;;;;;;6.17;5.40;;;;;;;;;;5072800;28;20608;-55
2023/03/07 07:18:44;;;;;;;6.13;4.70;;;;;;;;;;5089427;28;20211;-54
2023/03/07 07:21:10;;;;;;;5.00;4.47;;;;;;;;;;5076413;28;20184;-54
2023/03/07 07:23:36;;;;;;;5.63;4.90;;;;;;;;;;5090292;28;20184;-54
2023/03/07 07:26:02;;;;;;;5.80;5.07;;;;;;;;;;5091006;28;20191;-54
2023/03/07 07:28:28;;;;;;;6.40;5.30;;;;;;;;;;5089919;28;20191;-54
2023/03/07 07:30:54;;;;;;;5.63;5.03;;;;;;;;;;5088580;28;20273;-55
2023/03/07 07:33:20;;;;;;;7.60;5.70;;;;;;;;;;5082084;28;20175;-55
2023/03/07 07:35:46;;;;;;;5.40;4.70;;;;;;;;;;5076005;28;20172;-55
2023/03/07 07:38:13;;;;;;;6.10;5.17;;;;;;;;;;5085988;28;20171;-55
2023/03/07 07:40:39;;;;;;;6.70;5.33;;;;;;;;;;5089756;28;20224;-55
2023/03/07 07:43:05;;;;;;;7.03;5.47;;;;;;;;;;5080439;28;20271;-55
2023/03/07 07:45:31;;;;;;;6.40;5.30;;;;;;;;;;5084473;28;20643;-55
2023/03/07 07:47:57;;;;;;;6.23;4.77;;;;;;;;;;5087835;28;20261;-55
2023/03/07 07:50:23;;;;;;;7.23;5.67;;;;;;;;;;5077103;28;20222;-54
2023/03/07 07:52:52;;;;;;;5.43;4.63;;;;;;;;;;5077743;28;20527;-54
2023/03/07 07:55:18;;;;;;;6.90;5.97;;;;;;;;;;5084503;28;20198;-55
2023/03/07 07:57:44;;;;;;;6.47;5.07;;;;;;;;;;5080904;28;20237;-54
2023/03/07 08:00:12;;;;;;;7.43;5.50;;;;;;;;;;5082993;28;20653;-54
2023/03/07 08:02:38;;;;;;;6.00;5.40;;;;;;;;;;5082791;28;20190;-55
2023/03/07 08:05:09;;;;;;;6.37;5.53;;;;;;;;;;5083212;28;20180;-55
2023/03/07 08:07:35;;;;;;;5.90;5.30;;;;;;;;;;5085838;28;20651;-54
2023/03/07 08:10:01;;;;;;;5.80;5.20;;;;;;;;;;5087499;28;20318;-54
2023/03/07 08:12:27;;;;;;;8.70;5.83;;;;;;;;;;5084459;28;20207;-54
2023/03/07 08:14:53;;;;;;;7.97;6.40;;;;;;;;;;5082171;28;20247;-54
2023/03/07 08:17:19;;;;;;;6.73;5.67;;;;;;;;;;5086257;28;20670;-54
2023/03/07 08:19:45;;;;;;;8.80;5.77;;;;;;;;;;5079795;28;21175;-54
2023/03/07 08:22:11;;;;;;;5.53;4.80;;;;;;;;;;5084801;28;20191;-54
2023/03/07 08:24:37;;;;;;;6.03;5.43;;;;;;;;;;5085317;28;20176;-54
2023/03/07 08:27:03;;;;;;;6.23;5.57;;;;;;;;;;5083472;28;20188;-54
2023/03/07 08:29:30;;;;;;;6.63;5.50;;;;;;;;;;5081667;28;20760;-54
2023/03/07 08:31:56;;;;;;;6.23;5.30;;;;;;;;;;5084547;28;20594;-54
2023/03/07 08:34:22;;;;;;;5.83;4.80;;;;;;;;;;5081962;28;20718;-54
2023/03/07 08:36:48;;;;;;;5.97;4.67;;;;;;;;;;5085855;28;20191;-54
2023/03/07 08:39:14;;;;;;;6.13;5.30;;;;;;;;;;5084676;28;20297;-54
2023/03/07 08:41:40;;;;;;;7.60;5.23;;;;;;;;;;5079811;28;20185;-54
2023/03/07 08:44:06;;;;;;;7.27;5.97;;;;;;;;;;5084059;28;20183;-54
2023/03/07 08:46:32;;;;;;;5.97;5.37;;;;;;;;;;5080901;28;20180;-54
2023/03/07 08:48:58;;;;;;;7.20;5.50;;;;;;;;;;5074252;28;20203;-54
2023/03/07 08:51:24;;;;;;;6.90;5.00;;;;;;;;;;5084588;28;20237;-54
2023/03/07 08:53:50;;;;;;;6.77;5.23;;;;;;;;;;5084113;28;20180;-54
2023/03/07 08:56:17;;;;;;;8.10;5.40;;;;;;;;;;5085413;28;20203;-54
2023/03/07 08:58:43;;;;;;;8.67;5.90;;;;;;;;;;5084130;28;20207;-54
2023/03/07 09:01:11;;;;;;;6.40;5.60;;;;;;;;;;5085607;28;20233;-54
2023/03/07 09:03:37;;;;;;;6.83;5.77;;;;;;;;;;5081461;28;20190;-54
2023/03/07 09:06:04;;;;;;;6.20;5.47;;;;;;;;;;5084504;28;20183;-54
2023/03/07 09:08:30;;;;;;;6.27;5.03;;;;;;;;;;5084029;28;20626;-54
2023/03/07 09:10:59;;;;;;;5.87;4.47;;;;;;;;;;5084707;28;20283;-54
2023/03/07 09:13:26;;;;;;;5.17;4.30;;;;;;;;;;5082609;28;20181;-54
2023/03/07 09:15:52;;;;;;;5.17;3.20;;;;;;;;;;5084213;28;20176;-54
2023/03/07 09:18:21;;;;;;;3.83;3.43;;;;;;;;;;5083124;28;20644;-53
2023/03/07 09:20:47;;;;;;;4.90;3.33;;;;;;;;;;5084464;28;20180;-54
2023/03/07 09:23:13;;;;;;;4.03;3.23;;;;;;;;;;5077508;28;20183;-54
2023/03/07 09:25:39;;;;;;;3.20;2.90;;;;;;;;;;5075031;28;20180;-54
2023/03/07 09:28:05;;;;;;;3.30;3.00;;;;;;;;;;5079768;28;20180;-54
2023/03/07 09:30:31;;;;;;;2.63;2.23;;;;;;;;;;5085584;28;20224;-54
2023/03/07 09:32:57;;;;;;;3.10;2.80;;;;;;;;;;5076911;28;20685;-54
2023/03/07 09:35:24;;;;;;;3.40;2.40;;;;;;;;;;5081890;28;20294;-54
2023/03/07 09:37:50;;;;;;;2.30;2.07;;;;;;;;;;5083890;28;20176;-54
2023/03/07 09:40:18;;;;;;;2.53;2.30;;;;;;;;;;5075566;28;20455;-54
2023/03/07 09:43:10;;;;;;;3.17;2.43;;;;;;;;;;5082279;28;20191;-54
2023/03/07 09:45:49;;;;;;;2.30;2.10;;;;;;;;;;5044822;28;20207;-53
2023/03/07 09:48:24;;;;;;;2.97;2.30;;;;;;;;;;5081989;28;20192;-54
2023/03/07 09:50:57;;;;;;;2.43;1.83;;;;;;;;;;5076704;28;20218;-54
2023/03/07 09:53:36;;;;;;;2.33;1.93;;;;;;;;;;5077261;28;20221;-54
2023/03/07 09:56:03;;;;;;;2.23;1.90;;;;;;;;;;5082849;28;20180;-54
2023/03/07 09:58:29;;;;;;;2.53;2.00;;;;;;;;;;5080179;28;20237;-54
2023/03/07 10:01:00;;;;;;;2.20;1.87;;;;;;;;;;5081539;28;20183;-54
2023/03/07 10:03:42;;;;;;;1.90;1.80;;;;;;;;;;5077006;28;20654;-54
2023/03/07 10:06:18;;;;;;;1.97;1.77;;;;;;;;;;5079829;28;20172;-54
2023/03/07 10:08:45;;;;;;;2.00;1.80;;;;;;;;;;5079394;28;20183;-54
2023/03/07 10:11:29;;;;;;;2.10;1.87;;;;;;;;;;5077403;28;20247;-54
2023/03/07 10:14:14;;;;;;;3.00;1.87;;;;;;;;;;5083725;28;20530;-55
2023/03/07 10:16:43;;;;;;;1.80;1.53;;;;;;;;;;5086036;28;20538;-54
2023/03/07 10:19:18;;;;;;;2.93;1.50;;;;;;;;;;5089645;28;20806;-54
2023/03/07 10:21:57;;;;;;;1.60;1.50;;;;;;;;;;5089066;28;20184;-55
2023/03/07 10:24:29;;;;;;;2.20;2.00;;;;;;;;;;5086655;28;20204;-55
2023/03/07 10:27:05;;;;;;;1.40;1.30;;;;;;;;;;5084665;28;20185;-54
2023/03/07 10:29:37;;;;;;;1.60;1.50;;;;;;;;;;5085685;28;20230;-54
2023/03/07 10:32:12;;;;;;;1.63;1.50;;;;;;;;;;5070557;28;20659;-54
2023/03/07 10:34:39;;;;;;;1.50;1.40;;;;;;;;;;5069369;28;20199;-54
2023/03/07 10:37:25;;;;;;;2.23;2.00;;;;;;;;;;5071575;28;20188;-54
2023/03/07 10:39:52;;;;;;;1.73;1.63;;;;;;;;;;5066508;28;20658;-54
2023/03/07 10:42:21;;;;;;;1.70;1.60;;;;;;;;;;5068058;28;20640;-54
2023/03/07 10:44:48;;;;;;;1.60;1.50;;;;;;;;;;5068333;28;20211;-54
2023/03/07 10:47:18;;;;;;;1.53;1.43;;;;;;;;;;5065952;28;20742;-54
2023/03/07 10:49:45;;;;;;;1.20;1.20;;;;;;;;;;5060508;28;20608;-50
2023/03/07 10:52:17;;;;;;;1.57;1.47;;;;;;;;;;5070712;28;20180;-50
2023/03/07 10:54:43;;;;;;;1.50;1.40;;;;;;;;;;5072029;28;20196;-51
2023/03/07 10:57:15;;;;;;;1.60;1.50;;;;;;;;;;5072197;28;20646;-51
2023/03/07 10:59:51;;;;;;;1.73;1.60;;;;;;;;;;5067206;28;20206;-51
2023/03/07 11:02:49;;;;;;;1.70;1.60;;;;;;;;;;5069690;28;20192;-51
2023/03/07 11:05:35;;;;;;;1.53;1.43;;;;;;;;;;5023902;28;20218;-51
2023/03/07 11:08:19;;;;;;;2.30;2.10;;;;;;;;;;5064009;28;20191;-51
2023/03/07 11:10:45;;;;;;;1.60;1.50;;;;;;;;;;5068340;28;20212;-51
2023/03/07 11:13:16;;;;;;;1.60;1.43;;;;;;;;;;5071091;28;20169;-51
2023/03/07 11:15:44;;;;;;;1.60;1.50;;;;;;;;;;5070649;28;20247;-51
2023/03/07 11:18:30;;;;;;;1.53;1.43;;;;;;;;;;5066725;28;20702;-51
2023/03/07 11:20:56;;;;;;;1.50;1.40;;;;;;;;;;5070706;28;20199;-51
2023/03/07 11:23:22;;;;;;;1.47;1.37;;;;;;;;;;5069348;28;20180;-51
2023/03/07 11:25:49;;;;;;;3.90;1.70;;;;;;;;;;5072128;28;20184;-51
2023/03/07 11:28:24;;;;;;;1.63;1.13;;;;;;;;;;5063373;28;20271;-51
2023/03/07 11:30:52;;;;;;;1.47;1.33;;;;;;;;;;5082522;28;20226;-51
2023/03/07 11:33:24;;;;;;;1.90;1.67;;;;;;;;;;5088325;28;20179;-51
2023/03/07 11:35:57;;;;;;;1.90;1.70;;;;;;;;;;5087049;28;20184;-51
2023/03/07 11:38:42;;;;;;;1.50;1.40;;;;;;;;;;5087280;28;20663;-51
2023/03/07 11:41:15;;;;;;;2.27;1.60;;;;;;;;;;5080699;28;20214;-51
2023/03/07 11:44:00;;;;;;;1.80;1.70;;;;;;;;;;5086334;28;20384;-51
2023/03/07 11:46:41;;;;;;;1.90;1.63;;;;;;;;;;5074302;28;20195;-50
2023/03/07 11:49:15;;;;;;;1.70;1.60;;;;;;;;;;5085964;28;20569;-51
2023/03/07 11:52:00;;;;;;;1.60;1.50;;;;;;;;;;5088999;28;20334;-51
2023/03/07 11:54:35;;;;;;;1.50;1.40;;;;;;;;;;5090681;28;20183;-50
2023/03/07 11:57:21;;;;;;;1.40;1.30;;;;;;;;;;5090530;28;20183;-51
2023/03/07 11:59:47;;;;;;;1.50;1.30;;;;;;;;;;5038691;28;20195;-51
2023/03/07 12:02:32;;;;;;;1.60;1.50;;;;;;;;;;5089982;28;20264;-51
2023/03/07 12:05:13;;;;;;;1.47;1.37;;;;;;;;;;5090956;28;20532;-50
2023/03/07 12:07:46;;;;;;;1.30;1.20;;;;;;;;;;5080230;28;20317;-51
2023/03/07 12:10:19;;;;;;;1.60;1.30;;;;;;;;;;5090094;28;20203;-51
2023/03/07 12:13:04;;;;;;;2.83;1.70;;;;;;;;;;5088208;28;20200;-56
2023/03/07 12:15:33;;;;;;;1.77;1.67;;;;;;;;;;5086323;28;20167;-52
2023/03/07 12:18:18;;;;;;;2.10;1.93;;;;;;;;;;5088176;28;20218;-52
2023/03/07 12:20:53;;;;;;;1.70;1.60;;;;;;;;;;5085335;28;20206;-52
2023/03/07 12:23:48;;;;;;;1.67;1.57;;;;;;;;;;5083506;28;20180;-52
2023/03/07 12:26:26;;;;;;;2.03;1.93;;;;;;;;;;5065216;28;20199;-52
2023/03/07 12:29:25;;;;;;;1.90;1.80;;;;;;;;;;5080337;28;20180;-52
2023/03/07 12:31:53;;;;;;;1.60;1.50;;;;;;;;;;5029931;28;20603;-52
2023/03/07 12:34:35;;;;;;;1.90;1.80;;;;;;;;;;5083042;28;22015;-51
2023/03/07 12:37:04;;;;;;;2.33;2.00;;;;;;;;;;5084619;28;20179;-52
2023/03/07 12:39:45;;;;;;;1.40;1.30;;;;;;;;;;5083639;28;20737;-52
2023/03/07 12:42:31;;;;;;;1.40;1.23;;;;;;;;;;5088425;28;20189;-52
2023/03/07 12:45:09;;;;;;;1.60;1.50;;;;;;;;;;5087455;28;20651;-52
2023/03/07 12:47:37;;;;;;;1.70;1.50;;;;;;;;;;5087357;28;20182;-52
2023/03/07 12:50:16;;;;;;;1.50;1.40;;;;;;;;;;5078956;28;20257;-51
2023/03/07 12:52:51;;;;;;;1.53;1.43;;;;;;;;;;5080064;28;20281;-52
2023/03/07 12:55:22;;;;;;;2.83;1.83;;;;;;;;;;5084410;28;20180;-52
2023/03/07 12:58:03;;;;;;;1.77;1.67;;;;;;;;;;5084980;28;20180;-52
2023/03/07 13:00:30;;;;;;;1.43;1.30;;;;;;;;;;5081193;28;20182;-52
2023/03/07 13:02:59;;;;;;;2.27;1.40;;;;;;;;;;5085953;28;20195;-52
2023/03/07 13:05:25;;;;;;;1.93;1.47;;;;;;;;;;5089229;28;20204;-52
2023/03/07 13:07:52;;;;;;;1.30;1.20;;;;;;;;;;5089101;28;20658;-52
2023/03/07 13:10:20;;;;;;;1.73;1.57;;;;;;;;;;5083216;28;20211;-52
2023/03/07 13:12:46;;;;;;;1.63;1.53;;;;;;;;;;5087507;28;20195;-52
2023/03/07 13:15:19;;;;;;;2.17;2.07;;;;;;;;;;5084859;28;20168;-52
2023/03/07 13:17:45;;;;;;;1.60;1.50;;;;;;;;;;5085064;28;20194;-52
2023/03/07 13:20:17;;;;;;;1.90;1.80;;;;;;;;;;5088807;28;20229;-52
2023/03/07 13:22:43;;;;;;;1.70;1.47;;;;;;;;;;5090012;28;20228;-52
2023/03/07 13:25:24;;;;;;;1.73;1.60;;;;;;;;;;5093685;28;20544;-52
2023/03/07 13:27:55;;;;;;;1.60;1.50;;;;;;;;;;5087007;28;20180;-52
2023/03/07 13:30:21;;;;;;;1.67;1.47;;;;;;;;;;5085490;28;20698;-52
2023/03/07 13:32:50;;;;;;;4.90;1.80;;;;;;;;;;5085349;28;20237;-52
2023/03/07 13:35:28;;;;;;;2.03;1.80;;;;;;;;;;5077387;28;20196;-52
2023/03/07 13:37:58;;;;;;;1.87;1.40;;;;;;;;;;5082505;28;20574;-52
2023/03/07 13:40:33;;;;;;;1.70;1.57;;;;;;;;;;5085770;28;20275;-52
2023/03/07 13:42:59;;;;;;;1.43;1.27;;;;;;;;;;5082882;28;20179;-52
2023/03/07 13:45:37;;;;;;;1.40;1.30;;;;;;;;;;5085760;28;20199;-52
2023/03/07 13:48:04;;;;;;;1.57;1.47;;;;;;;;;;5079613;28;20262;-52
2023/03/07 13:50:50;;;;;;;1.63;1.53;;;;;;;;;;5081203;28;20203;-52
2023/03/07 13:53:21;;;;;;;2.10;1.50;;;;;;;;;;5063267;28;20282;-52
2023/03/07 13:56:08;;;;;;;1.40;1.30;;;;;;;;;;5076477;28;20180;-52
2023/03/07 13:58:54;;;;;;;1.77;1.67;;;;;;;;;;5061209;28;20703;-52
2023/03/07 14:01:27;;;;;;;1.87;1.63;;;;;;;;;;5075292;28;20267;-52
2023/03/07 14:04:02;;;;;;;2.17;1.83;;;;;;;;;;5074792;28;20274;-52
2023/03/07 14:06:39;;;;;;;2.10;1.90;;;;;;;;;;5075559;28;20180;-52
2023/03/07 14:09:07;;;;;;;1.80;1.60;;;;;;;;;;5069554;28;20253;-52
2023/03/07 14:11:42;;;;;;;2.00;1.90;;;;;;;;;;5084236;28;20226;-52
2023/03/07 14:14:08;;;;;;;2.20;1.87;;;;;;;;;;5080614;28;20179;-52
2023/03/07 14:16:38;;;;;;;1.97;1.77;;;;;;;;;;5072394;28;20542;-52
2023/03/07 14:19:16;;;;;;;1.63;1.53;;;;;;;;;;5071351;28;20183;-52
2023/03/07 14:21:59;;;;;;;2.50;2.00;;;;;;;;;;5071447;28;20627;-52
2023/03/07 14:24:45;;;;;;;2.80;2.13;;;;;;;;;;5070342;28;20207;-52
2023/03/07 14:27:15;;;;;;;2.60;2.07;;;;;;;;;;5075431;28;20226;-52
2023/03/07 14:29:51;;;;;;;2.50;2.10;;;;;;;;;;5073358;28;20239;-52
2023/03/07 14:32:21;;;;;;;2.27;2.07;;;;;;;;;;5078172;28;20266;-52
2023/03/07 14:34:52;;;;;;;3.47;2.00;;;;;;;;;;5073331;28;20636;-52
2023/03/07 14:37:25;;;;;;;3.43;2.07;;;;;;;;;;5078398;28;20356;-52
2023/03/07 14:40:10;;;;;;;3.23;2.27;;;;;;;;;;5076726;28;20249;-52
2023/03/07 14:42:55;;;;;;;2.50;2.30;;;;;;;;;;5076266;28;20188;-52
2023/03/07 14:45:40;;;;;;;3.03;2.30;;;;;;;;;;5074303;28;20643;-52
2023/03/07 14:48:11;;;;;;;3.33;2.10;;;;;;;;;;5077473;28;20643;-52
2023/03/07 14:50:42;;;;;;;3.37;2.23;;;;;;;;;;5074927;28;20203;-52
2023/03/07 14:53:28;;;;;;;2.93;2.30;;;;;;;;;;5077215;28;20195;-52
2023/03/07 14:55:55;;;;;;;2.40;2.20;;;;;;;;;;5074165;28;20449;-53
2023/03/07 14:58:26;;;;;;;3.43;2.60;;;;;;;;;;5079379;28;20194;-52
2023/03/07 15:00:59;;;;;;;2.30;2.10;;;;;;;;;;5077237;28;20179;-52
2023/03/07 15:03:26;;;;;;;2.63;2.30;;;;;;;;;;5089268;28;20203;-52
2023/03/07 15:05:53;;;;;;;2.80;2.60;;;;;;;;;;5081363;28;20203;-52
2023/03/07 15:08:30;;;;;;;2.40;2.20;;;;;;;;;;5075600;28;20202;-52
2023/03/07 15:10:56;;;;;;;2.30;2.10;;;;;;;;;;5085813;28;20620;-52
2023/03/07 15:13:28;;;;;;;3.17;2.87;;;;;;;;;;5075633;28;20167;-52
2023/03/07 15:15:57;;;;;;;3.17;2.87;;;;;;;;;;5078552;28;20180;-52
2023/03/07 15:18:43;;;;;;;3.83;3.53;;;;;;;;;;5075067;28;20183;-52
2023/03/07 15:21:15;;;;;;;6.13;5.53;;;;;;;;;;5080796;28;20670;-52
2023/03/07 15:23:42;;;;;;;8.87;6.37;;;;;;;;;;5077845;28;20199;-52
2023/03/07 15:26:09;;;;;;;10.63;7.00;;;;;;;;;;5078296;28;20644;-52
2023/03/07 15:28:40;;;;;;;12.33;9.70;;;;;;;;;;5079817;28;20176;-52
2023/03/07 15:31:07;;;;;;;8.20;5.40;;;;;;;;;;5080353;28;20317;-52
2023/03/07 15:33:34;;;;;;;5.60;5.00;;;;;;;;;;5079232;28;20187;-52
2023/03/07 15:36:12;;;;;;;5.93;4.00;;;;;;;;;;5080984;28;20172;-53
2023/03/07 15:39:01;;;;;;;5.10;4.60;;;;;;;;;;5081755;28;20647;-54
2023/03/07 15:41:28;;;;;;;7.70;5.60;;;;;;;;;;5073919;28;20203;-52
2023/03/07 15:44:04;;;;;;;4.00;3.67;;;;;;;;;;5080985;28;20631;-52
2023/03/07 15:46:30;;;;;;;4.07;3.70;;;;;;;;;;5076717;28;20633;-52
2023/03/07 15:48:57;;;;;;;3.70;3.23;;;;;;;;;;5071803;28;20182;-52
2023/03/07 15:51:24;;;;;;;4.23;3.83;;;;;;;;;;5082701;28;20203;-52
2023/03/07 15:53:57;;;;;;;3.83;3.50;;;;;;;;;;5074813;28;20184;-52
2023/03/07 15:56:29;;;;;;;3.57;3.27;;;;;;;;;;5080761;28;20529;-52
2023/03/07 15:58:57;;;;;;;3.53;3.20;;;;;;;;;;5078713;28;20237;-52
2023/03/07 16:01:24;;;;;;;5.00;4.03;;;;;;;;;;5078600;28;20191;-52
2023/03/07 16:03:52;;;;;;;5.87;3.60;;;;;;;;;;5076544;28;20887;-52
2023/03/07 16:06:37;;;;;;;4.27;3.63;;;;;;;;;;5073582;28;20183;-52
2023/03/07 16:09:03;;;;;;;4.90;4.33;;;;;;;;;;5072456;28;20194;-52
2023/03/07 16:11:30;;;;;;;4.33;3.93;;;;;;;;;;5075454;28;20226;-52
2023/03/07 16:13:56;;;;;;;3.60;3.30;;;;;;;;;;5078930;28;20223;-52
2023/03/07 16:16:24;;;;;;;4.00;3.60;;;;;;;;;;5078355;28;20188;-52
2023/03/07 16:18:50;;;;;;;4.07;3.63;;;;;;;;;;5080654;28;20245;-52